Time;durP1;ratioP1;P1;durP2;ratioP2;P2;SDS_P1;SDS_P2;PMS_P1;PMS_P2;Temp;Humidity;BMP_temperature;BMP_pressure;BME280_temperature;BME280_humidity;BME280_pressure;Samples;Min_cycle;Max_cycle;Signal;HPM_P1;HPM_P2
2022/03/22 00:01:24;;;;;;;39.45;21.05;;;;;;;;;;5107315;28;20127;-78
2022/03/22 00:03:50;;;;;;;33.85;20.42;;;;;;;;;;5101921;28;20541;-79
2022/03/22 00:06:18;;;;;;;35.40;21.15;;;;;;;;;;5103329;28;20078;-78
2022/03/22 00:08:44;;;;;;;38.15;20.95;;;;;;;;;;5117656;28;20071;-79
2022/03/22 00:11:11;;;;;;;35.13;21.35;;;;;;;;;;5101571;28;20105;-79
2022/03/22 00:13:37;;;;;;;35.63;20.58;;;;;;;;;;5120590;28;20047;-78
2022/03/22 00:16:03;;;;;;;36.45;20.83;;;;;;;;;;5104663;28;20448;-77
2022/03/22 00:18:29;;;;;;;33.42;20.10;;;;;;;;;;5128929;28;20057;-78
2022/03/22 00:20:56;;;;;;;40.20;20.13;;;;;;;;;;5120470;28;20066;-78
2022/03/22 00:23:22;;;;;;;32.10;19.30;;;;;;;;;;5116765;28;20043;-78
2022/03/22 00:25:48;;;;;;;33.45;19.92;;;;;;;;;;5117680;28;20427;-78
2022/03/22 00:28:14;;;;;;;37.00;20.15;;;;;;;;;;5120003;28;20043;-78
2022/03/22 00:30:40;;;;;;;36.10;19.65;;;;;;;;;;5120282;28;20131;-79
2022/03/22 00:33:06;;;;;;;33.67;19.65;;;;;;;;;;5116542;28;20040;-78
2022/03/22 00:35:35;;;;;;;40.47;19.10;;;;;;;;;;5100470;28;20040;-77
2022/03/22 00:38:02;;;;;;;36.22;20.65;;;;;;;;;;5116281;28;20065;-78
2022/03/22 00:40:28;;;;;;;36.60;19.35;;;;;;;;;;5116954;28;20107;-77
2022/03/22 00:42:54;;;;;;;37.63;19.33;;;;;;;;;;5116591;28;20036;-78
2022/03/22 00:45:21;;;;;;;33.28;19.70;;;;;;;;;;5116444;28;20431;-78
2022/03/22 00:47:48;;;;;;;36.40;19.48;;;;;;;;;;5097583;28;20062;-75
2022/03/22 00:50:14;;;;;;;34.10;19.42;;;;;;;;;;5114186;28;20054;-76
2022/03/22 00:52:40;;;;;;;34.40;20.13;;;;;;;;;;5101102;28;20020;-75
2022/03/22 00:55:07;;;;;;;34.42;20.05;;;;;;;;;;5118113;28;20375;-75
2022/03/22 00:57:36;;;;;;;35.97;20.23;;;;;;;;;;5101055;28;20063;-76
2022/03/22 01:00:05;;;;;;;38.75;20.90;;;;;;;;;;5101698;28;20174;-76
2022/03/22 01:02:35;;;;;;;33.75;19.05;;;;;;;;;;5101179;28;20485;-75
2022/03/22 01:05:02;;;;;;;31.58;18.95;;;;;;;;;;5118044;28;20090;-76
2022/03/22 01:07:28;;;;;;;34.05;19.38;;;;;;;;;;5101235;28;20100;-76
2022/03/22 01:09:54;;;;;;;33.50;19.42;;;;;;;;;;5117365;28;20455;-76
2022/03/22 01:12:20;;;;;;;28.23;18.20;;;;;;;;;;5118380;28;20034;-75
2022/03/22 01:14:46;;;;;;;31.20;18.42;;;;;;;;;;5101113;28;20040;-76
2022/03/22 01:17:12;;;;;;;31.98;18.63;;;;;;;;;;5117796;28;20038;-75
2022/03/22 01:19:39;;;;;;;32.20;18.85;;;;;;;;;;5100972;28;20414;-76
2022/03/22 01:22:05;;;;;;;32.72;18.45;;;;;;;;;;5119136;28;20096;-75
2022/03/22 01:24:32;;;;;;;30.90;18.45;;;;;;;;;;5130227;28;20051;-75
2022/03/22 01:26:58;;;;;;;34.35;18.55;;;;;;;;;;5112618;28;20036;-75
2022/03/22 01:29:24;;;;;;;35.00;18.60;;;;;;;;;;5130529;28;20127;-75
2022/03/22 01:31:50;;;;;;;35.00;17.65;;;;;;;;;;5130533;28;20324;-75
2022/03/22 01:34:16;;;;;;;30.25;17.92;;;;;;;;;;5135218;28;20057;-75
2022/03/22 01:36:42;;;;;;;33.95;18.38;;;;;;;;;;5140334;28;20143;-75
2022/03/22 01:39:08;;;;;;;28.23;17.48;;;;;;;;;;5137815;28;20381;-76
2022/03/22 01:41:34;;;;;;;33.08;17.63;;;;;;;;;;5102106;28;20036;-75
2022/03/22 01:44:00;;;;;;;32.60;18.20;;;;;;;;;;5119423;28;20123;-75
2022/03/22 01:46:27;;;;;;;28.88;16.95;;;;;;;;;;5131495;28;20059;-76
2022/03/22 01:48:53;;;;;;;28.10;16.98;;;;;;;;;;5100464;28;20129;-76
2022/03/22 01:51:21;;;;;;;30.60;18.13;;;;;;;;;;5117032;28;20096;-76
2022/03/22 01:53:47;;;;;;;34.75;18.50;;;;;;;;;;5100089;28;20039;-76
2022/03/22 01:56:13;;;;;;;32.88;18.40;;;;;;;;;;5117227;28;20040;-76
2022/03/22 01:58:39;;;;;;;29.52;18.23;;;;;;;;;;5116877;28;20040;-76
2022/03/22 02:06:34;;;;;;;35.78;18.67;;;;;;;;;;5117671;28;20185;-78
2022/03/22 02:09:00;;;;;;;31.02;18.55;;;;;;;;;;5101544;28;20486;-79
2022/03/22 02:11:26;;;;;;;34.00;18.50;;;;;;;;;;5119084;28;20470;-76
2022/03/22 02:13:52;;;;;;;29.58;17.92;;;;;;;;;;5116197;28;20359;-76
2022/03/22 02:16:18;;;;;;;31.88;18.15;;;;;;;;;;5099085;28;20042;-76
2022/03/22 02:18:45;;;;;;;31.10;17.42;;;;;;;;;;5102827;28;20062;-79
2022/03/22 02:21:12;;;;;;;35.55;17.80;;;;;;;;;;5121309;28;20077;-79
2022/03/22 02:23:57;;;;;;;31.95;17.77;;;;;;;;;;5122036;28;20103;-79
2022/03/22 02:26:23;;;;;;;28.70;16.35;;;;;;;;;;5104743;28;20386;-78
2022/03/22 02:28:53;;;;;;;26.13;16.95;;;;;;;;;;5104343;28;20355;-79
2022/03/22 02:31:19;;;;;;;30.13;16.67;;;;;;;;;;5121378;28;20043;-79
2022/03/22 02:33:45;;;;;;;25.63;16.58;;;;;;;;;;5105039;28;20031;-79
2022/03/22 02:36:11;;;;;;;28.70;16.48;;;;;;;;;;5123058;28;20043;-79
2022/03/22 02:38:37;;;;;;;26.33;15.95;;;;;;;;;;5125629;28;20038;-77
2022/03/22 02:41:03;;;;;;;25.58;15.52;;;;;;;;;;5131969;28;20028;-78
2022/03/22 02:43:29;;;;;;;26.67;16.00;;;;;;;;;;5133045;28;20051;-79
2022/03/22 02:45:55;;;;;;;29.98;16.45;;;;;;;;;;5121847;28;20039;-79
2022/03/22 02:48:21;;;;;;;28.52;16.13;;;;;;;;;;5132121;28;20032;-78
2022/03/22 02:50:47;;;;;;;31.55;17.08;;;;;;;;;;5135648;28;20053;-78
2022/03/22 02:53:13;;;;;;;30.13;16.83;;;;;;;;;;5118569;28;20032;-78
2022/03/22 02:55:39;;;;;;;31.02;15.82;;;;;;;;;;5126659;28;20043;-79
2022/03/22 02:58:05;;;;;;;26.08;15.27;;;;;;;;;;5121555;28;20038;-79
2022/03/22 03:00:31;;;;;;;28.50;16.25;;;;;;;;;;5112258;28;20035;-76
2022/03/22 03:02:57;;;;;;;27.33;15.40;;;;;;;;;;5126996;28;20043;-76
2022/03/22 03:05:24;;;;;;;27.02;16.00;;;;;;;;;;5102132;28;20043;-76
2022/03/22 03:07:51;;;;;;;28.75;15.90;;;;;;;;;;5115660;28;20035;-76
2022/03/22 03:10:16;;;;;;;27.00;15.85;;;;;;;;;;5098459;28;20100;-76
2022/03/22 03:12:42;;;;;;;27.40;15.27;;;;;;;;;;5103626;28;20065;-79
2022/03/22 03:15:09;;;;;;;28.67;16.63;;;;;;;;;;5103191;28;20036;-79
2022/03/22 03:17:35;;;;;;;27.55;16.35;;;;;;;;;;5103212;28;20035;-78
2022/03/22 03:20:01;;;;;;;28.75;17.00;;;;;;;;;;5122217;28;20109;-79
2022/03/22 03:22:27;;;;;;;29.60;16.77;;;;;;;;;;5109477;28;20028;-78
2022/03/22 03:24:53;;;;;;;27.02;15.88;;;;;;;;;;5125018;28;20082;-78
2022/03/22 03:27:20;;;;;;;33.47;17.92;;;;;;;;;;5117922;28;20032;-77
2022/03/22 03:29:46;;;;;;;26.33;17.27;;;;;;;;;;5117677;28;20039;-78
2022/03/22 03:32:12;;;;;;;32.22;18.55;;;;;;;;;;5100359;28;20524;-79
2022/03/22 03:34:38;;;;;;;31.00;17.73;;;;;;;;;;5120346;28;20107;-79
2022/03/22 03:37:04;;;;;;;29.98;17.65;;;;;;;;;;5120981;28;20395;-78
2022/03/22 03:39:30;;;;;;;30.52;17.88;;;;;;;;;;5119897;28;20035;-78
2022/03/22 03:41:57;;;;;;;32.90;17.70;;;;;;;;;;5119911;28;20039;-78
2022/03/22 03:47:09;;;;;;;39.05;22.42;;;;;;;;;;5120442;28;20059;-79
2022/03/22 03:49:44;;;;;;;35.63;20.10;;;;;;;;;;5103471;28;20036;-79
2022/03/22 03:52:12;;;;;;;35.75;20.20;;;;;;;;;;5102586;28;20078;-78
2022/03/22 03:54:38;;;;;;;32.03;17.70;;;;;;;;;;5120526;28;20032;-78
2022/03/22 03:57:04;;;;;;;31.15;18.23;;;;;;;;;;5102470;28;20081;-80
2022/03/22 03:59:30;;;;;;;35.30;17.73;;;;;;;;;;5102649;28;20518;-78
2022/03/22 04:01:56;;;;;;;33.78;17.90;;;;;;;;;;5120464;28;20054;-79
2022/03/22 04:04:22;;;;;;;29.60;18.08;;;;;;;;;;5119411;28;20069;-78
2022/03/22 04:06:48;;;;;;;29.75;17.30;;;;;;;;;;5102738;28;20073;-78
2022/03/22 04:09:15;;;;;;;35.00;18.30;;;;;;;;;;5116843;28;20031;-78
2022/03/22 04:11:41;;;;;;;32.38;17.40;;;;;;;;;;5131464;28;20054;-78
2022/03/22 04:14:07;;;;;;;34.20;17.67;;;;;;;;;;5117892;28;20093;-78
2022/03/22 04:16:34;;;;;;;32.13;18.13;;;;;;;;;;5099943;28;20044;-78
2022/03/22 04:19:00;;;;;;;38.35;21.15;;;;;;;;;;5099903;28;20035;-78
2022/03/22 04:21:26;;;;;;;31.23;18.05;;;;;;;;;;5117064;28;20071;-79
2022/03/22 04:23:52;;;;;;;36.22;22.48;;;;;;;;;;5117467;28;20093;-79
2022/03/22 04:26:18;;;;;;;34.83;21.40;;;;;;;;;;5121109;28;20048;-79
2022/03/22 04:34:13;;;;;;;32.70;19.58;;;;;;;;;;5118763;28;20430;-75
2022/03/22 04:36:39;;;;;;;30.65;17.80;;;;;;;;;;5119634;28;20182;-76
2022/03/22 04:39:05;;;;;;;43.75;24.70;;;;;;;;;;5101362;28;20046;-75
2022/03/22 04:41:31;;;;;;;37.97;22.25;;;;;;;;;;5101946;28;20431;-76
2022/03/22 04:43:57;;;;;;;41.72;24.00;;;;;;;;;;5119130;28;20105;-75
2022/03/22 04:46:23;;;;;;;34.22;20.17;;;;;;;;;;5120139;28;20054;-76
2022/03/22 04:48:49;;;;;;;30.40;19.38;;;;;;;;;;5119358;28;20408;-76
2022/03/22 04:59:11;;;;;;;33.80;19.08;;;;;;;;;;5119101;28;20046;-76
2022/03/22 05:01:37;;;;;;;32.30;18.58;;;;;;;;;;5118235;28;20044;-77
2022/03/22 05:04:03;;;;;;;29.60;18.27;;;;;;;;;;5125585;28;20051;-77
2022/03/22 05:06:31;;;;;;;31.35;18.55;;;;;;;;;;5134792;28;20019;-77
2022/03/22 05:08:57;;;;;;;35.25;19.25;;;;;;;;;;5126844;28;20070;-77
2022/03/22 05:11:23;;;;;;;33.80;19.88;;;;;;;;;;5117913;28;20077;-76
2022/03/22 05:13:49;;;;;;;32.97;20.60;;;;;;;;;;5101475;28;20125;-76
2022/03/22 05:16:15;;;;;;;32.80;19.60;;;;;;;;;;5117806;28;20055;-76
2022/03/22 05:18:42;;;;;;;36.95;20.73;;;;;;;;;;5117451;28;20406;-76
2022/03/22 05:21:08;;;;;;;33.95;20.88;;;;;;;;;;5118560;28;20451;-77
2022/03/22 05:23:34;;;;;;;37.70;21.13;;;;;;;;;;5117850;28;20169;-76
2022/03/22 05:26:00;;;;;;;34.42;19.63;;;;;;;;;;5117396;28;20367;-75
2022/03/22 05:28:26;;;;;;;37.55;21.27;;;;;;;;;;5119287;28;20046;-80
2022/03/22 05:30:52;;;;;;;40.92;23.85;;;;;;;;;;5103481;28;20061;-80
2022/03/22 05:33:18;;;;;;;39.80;23.15;;;;;;;;;;5120078;28;20036;-79
2022/03/22 05:35:44;;;;;;;37.78;22.00;;;;;;;;;;5102274;28;20450;-80
2022/03/22 05:38:10;;;;;;;35.75;21.35;;;;;;;;;;5119183;28;20035;-80
2022/03/22 05:40:38;;;;;;;35.35;21.83;;;;;;;;;;5102031;28;20355;-80
2022/03/22 05:43:04;;;;;;;35.90;21.38;;;;;;;;;;5119009;28;20101;-79
2022/03/22 05:45:31;;;;;;;43.42;25.02;;;;;;;;;;5119735;28;20126;-78
2022/03/22 05:48:00;;;;;;;43.30;24.02;;;;;;;;;;5120249;27;20110;-78
2022/03/22 05:50:26;;;;;;;37.85;22.00;;;;;;;;;;5119571;28;20044;-79
2022/03/22 05:52:52;;;;;;;37.45;21.52;;;;;;;;;;5119402;28;20039;-80
2022/03/22 05:55:18;;;;;;;34.53;21.52;;;;;;;;;;5118411;28;20042;-77
2022/03/22 05:57:44;;;;;;;34.42;21.20;;;;;;;;;;5101725;28;20036;-78
2022/03/22 06:00:11;;;;;;;39.58;20.23;;;;;;;;;;5101380;28;20040;-80
2022/03/22 06:02:37;;;;;;;39.30;19.38;;;;;;;;;;5101279;28;20160;-79
2022/03/22 06:05:04;;;;;;;38.40;20.52;;;;;;;;;;5118230;28;20458;-80
2022/03/22 06:07:30;;;;;;;33.33;20.33;;;;;;;;;;5118974;28;20335;-79
2022/03/22 06:09:56;;;;;;;37.88;21.08;;;;;;;;;;5118923;28;20051;-80
2022/03/22 06:12:22;;;;;;;35.08;20.05;;;;;;;;;;5119728;28;20031;-79
2022/03/22 06:15:14;;;;;;;38.10;21.77;;;;;;;;;;5123575;28;20141;-78
2022/03/22 06:17:35;;;;;;;34.90;21.63;;;;;;;;;;5128227;28;20042;-78
2022/03/22 06:20:01;;;;;;;42.25;22.13;;;;;;;;;;5107025;28;20035;-80
2022/03/22 06:22:27;;;;;;;34.72;21.60;;;;;;;;;;5104052;28;20098;-79
2022/03/22 06:24:54;;;;;;;38.80;22.60;;;;;;;;;;5123345;28;20035;-80
2022/03/22 06:27:20;;;;;;;37.22;22.23;;;;;;;;;;5101955;28;20427;-80
2022/03/22 06:29:46;;;;;;;40.90;22.48;;;;;;;;;;5119120;28;20435;-80
2022/03/22 06:32:12;;;;;;;37.72;23.13;;;;;;;;;;5118085;28;20035;-80
2022/03/22 06:34:38;;;;;;;40.88;23.52;;;;;;;;;;5101420;28;20456;-80
2022/03/22 06:37:05;;;;;;;35.03;21.55;;;;;;;;;;5103833;28;20101;-80
2022/03/22 06:39:31;;;;;;;40.10;22.70;;;;;;;;;;5101755;28;20340;-81
2022/03/22 06:41:57;;;;;;;39.03;22.40;;;;;;;;;;5103438;28;20513;-81
2022/03/22 06:44:23;;;;;;;41.65;23.02;;;;;;;;;;5118561;28;20039;-80
2022/03/22 06:46:49;;;;;;;38.55;23.75;;;;;;;;;;5119042;28;20039;-80
2022/03/22 06:49:15;;;;;;;41.20;24.73;;;;;;;;;;5118055;28;20055;-79
2022/03/22 06:51:41;;;;;;;42.42;23.63;;;;;;;;;;5100921;28;20379;-77
2022/03/22 06:54:07;;;;;;;44.83;24.67;;;;;;;;;;5101396;28;20067;-79
2022/03/22 06:56:33;;;;;;;43.25;23.67;;;;;;;;;;5119501;28;20032;-79
2022/03/22 06:58:59;;;;;;;36.55;22.15;;;;;;;;;;5119297;28;20043;-79
2022/03/22 07:01:25;;;;;;;36.20;22.67;;;;;;;;;;5102782;28;20340;-80
2022/03/22 07:03:51;;;;;;;40.33;22.50;;;;;;;;;;5119205;28;20096;-80
2022/03/22 07:06:17;;;;;;;41.72;21.83;;;;;;;;;;5103309;28;20062;-79
2022/03/22 07:08:44;;;;;;;35.30;21.42;;;;;;;;;;5124349;28;20443;-78
2022/03/22 07:13:54;;;;;;;35.17;20.30;;;;;;;;;;5139434;28;20031;-79
2022/03/22 07:16:20;;;;;;;40.58;22.63;;;;;;;;;;5137291;28;20040;-79
2022/03/22 07:18:46;;;;;;;40.03;23.65;;;;;;;;;;5120437;28;20050;-80
2022/03/22 07:21:12;;;;;;;40.58;23.25;;;;;;;;;;5115747;28;20430;-78
2022/03/22 07:23:39;;;;;;;36.00;21.83;;;;;;;;;;5139715;28;20034;-78
2022/03/22 07:26:05;;;;;;;42.40;25.52;;;;;;;;;;5139336;28;20098;-79
2022/03/22 07:28:31;;;;;;;38.78;23.67;;;;;;;;;;5110506;28;20043;-79
2022/03/22 07:30:57;;;;;;;46.58;22.98;;;;;;;;;;5100946;28;20126;-80
2022/03/22 07:33:23;;;;;;;37.78;21.35;;;;;;;;;;5116663;28;20480;-80
2022/03/22 07:35:49;;;;;;;32.95;20.45;;;;;;;;;;5116980;28;20067;-80
2022/03/22 07:38:15;;;;;;;34.28;21.27;;;;;;;;;;5099250;28;20032;-79
2022/03/22 07:40:41;;;;;;;34.47;20.55;;;;;;;;;;5117467;28;20069;-79
2022/03/22 07:43:07;;;;;;;34.38;20.70;;;;;;;;;;5098691;28;20108;-79
2022/03/22 07:45:33;;;;;;;37.92;20.80;;;;;;;;;;5099065;28;20035;-79
2022/03/22 07:47:59;;;;;;;36.40;20.33;;;;;;;;;;5115931;28;20443;-79
2022/03/22 07:53:10;;;;;;;33.65;19.92;;;;;;;;;;5117259;28;20036;-79
2022/03/22 07:55:39;;;;;;;30.30;19.13;;;;;;;;;;5098516;28;20036;-80
2022/03/22 07:58:06;;;;;;;31.55;19.23;;;;;;;;;;5116062;28;20020;-80
2022/03/22 08:00:34;;;;;;;33.25;19.95;;;;;;;;;;5100019;28;20509;-81
2022/03/22 08:03:03;;;;;;;32.10;19.23;;;;;;;;;;5100596;28;20135;-80
2022/03/22 08:05:30;;;;;;;30.65;18.63;;;;;;;;;;5100445;28;20047;-80
2022/03/22 08:07:56;;;;;;;33.63;19.02;;;;;;;;;;5117603;28;20035;-80
2022/03/22 08:10:22;;;;;;;32.78;19.75;;;;;;;;;;5099455;28;20039;-79
2022/03/22 08:12:48;;;;;;;31.38;19.05;;;;;;;;;;5102877;28;20428;-79
2022/03/22 08:15:14;;;;;;;33.38;19.42;;;;;;;;;;5101535;28;20075;-79
2022/03/22 08:17:40;;;;;;;33.08;18.88;;;;;;;;;;5117861;28;20127;-79
2022/03/22 08:20:07;;;;;;;29.27;18.70;;;;;;;;;;5117723;28;20047;-79
2022/03/22 08:22:33;;;;;;;31.00;19.33;;;;;;;;;;5099736;28;20035;-81
2022/03/22 08:24:59;;;;;;;37.35;19.80;;;;;;;;;;5099790;28;20071;-79
2022/03/22 08:27:26;;;;;;;35.95;18.80;;;;;;;;;;5116715;28;20040;-78
2022/03/22 08:29:51;;;;;;;33.15;19.23;;;;;;;;;;5098784;28;20035;-78
2022/03/22 08:32:18;;;;;;;34.40;19.50;;;;;;;;;;5114976;28;20052;-77
2022/03/22 08:34:43;;;;;;;35.45;20.17;;;;;;;;;;5119500;28;20541;-78
2022/03/22 08:37:11;;;;;;;33.92;19.70;;;;;;;;;;5120162;28;20039;-77
2022/03/22 08:39:37;;;;;;;37.05;19.98;;;;;;;;;;5118045;28;20036;-79
2022/03/22 08:42:03;;;;;;;31.30;19.00;;;;;;;;;;5121353;28;20104;-80
2022/03/22 08:44:29;;;;;;;31.10;18.52;;;;;;;;;;5099921;28;20047;-80
2022/03/22 08:46:55;;;;;;;27.60;17.90;;;;;;;;;;5099616;28;20040;-79
2022/03/22 08:49:21;;;;;;;35.20;18.48;;;;;;;;;;5117845;28;20046;-79
2022/03/22 08:51:50;;;;;;;34.17;18.70;;;;;;;;;;5099850;28;20043;-80
2022/03/22 08:54:17;;;;;;;28.80;18.48;;;;;;;;;;5116541;28;20371;-80
2022/03/22 08:56:43;;;;;;;29.13;17.45;;;;;;;;;;5099318;28;20039;-79
2022/03/22 08:59:09;;;;;;;32.08;17.35;;;;;;;;;;5099602;28;20035;-79
2022/03/22 09:01:35;;;;;;;31.35;17.67;;;;;;;;;;5117464;28;20036;-80
2022/03/22 09:06:46;;;;;;;27.98;17.42;;;;;;;;;;5117078;28;20127;-81
2022/03/22 09:09:13;;;;;;;26.70;16.80;;;;;;;;;;5117018;28;20082;-80
2022/03/22 09:11:39;;;;;;;30.23;17.13;;;;;;;;;;5099443;28;20181;-80
2022/03/22 09:14:05;;;;;;;27.60;16.08;;;;;;;;;;5119624;28;20119;-80
2022/03/22 09:16:32;;;;;;;28.55;16.73;;;;;;;;;;5121637;28;20366;-79
2022/03/22 09:18:58;;;;;;;27.50;16.40;;;;;;;;;;5123818;28;20036;-80
2022/03/22 09:21:24;;;;;;;26.52;16.02;;;;;;;;;;5103566;28;20054;-79
2022/03/22 09:23:50;;;;;;;33.30;16.33;;;;;;;;;;5124334;28;20039;-80
2022/03/22 09:26:16;;;;;;;30.10;16.63;;;;;;;;;;5106767;28;20035;-80
2022/03/22 09:28:42;;;;;;;31.55;17.10;;;;;;;;;;5104568;28;20289;-78
2022/03/22 09:31:08;;;;;;;27.02;16.02;;;;;;;;;;5131728;28;20067;-78
2022/03/22 09:33:34;;;;;;;31.60;16.05;;;;;;;;;;5127039;28;20052;-78
2022/03/22 09:36:01;;;;;;;26.60;15.27;;;;;;;;;;5107131;28;20488;-80
2022/03/22 09:38:27;;;;;;;27.73;15.80;;;;;;;;;;5103902;28;20046;-80
2022/03/22 09:40:53;;;;;;;23.15;15.20;;;;;;;;;;5122631;28;20055;-79
2022/03/22 09:43:20;;;;;;;26.30;15.23;;;;;;;;;;5105397;28;20046;-80
2022/03/22 09:45:46;;;;;;;25.60;14.60;;;;;;;;;;5121017;28;20039;-80
2022/03/22 09:48:12;;;;;;;24.75;15.40;;;;;;;;;;5103400;28;20043;-80
2022/03/22 09:53:22;;;;;;;27.08;15.75;;;;;;;;;;5123261;28;20035;-80
2022/03/22 09:55:48;;;;;;;25.95;14.52;;;;;;;;;;5121624;28;20039;-79
2022/03/22 09:58:14;;;;;;;22.25;15.00;;;;;;;;;;5103332;28;20036;-80
2022/03/22 10:00:40;;;;;;;24.48;14.52;;;;;;;;;;5102898;28;20077;-79
2022/03/22 10:03:06;;;;;;;27.10;14.93;;;;;;;;;;5103339;28;20059;-79
2022/03/22 10:05:34;;;;;;;25.48;14.57;;;;;;;;;;5103311;28;20138;-81
2022/03/22 10:08:01;;;;;;;24.15;15.02;;;;;;;;;;5103376;28;20040;-81
2022/03/22 10:10:27;;;;;;;22.60;14.68;;;;;;;;;;5119927;28;20146;-81
2022/03/22 10:12:58;;;;;;;30.70;14.75;;;;;;;;;;5102389;28;20087;-81
2022/03/22 10:15:28;;;;;;;28.80;14.95;;;;;;;;;;5102565;28;20422;-79
2022/03/22 10:18:00;;;;;;;26.77;15.70;;;;;;;;;;5101116;28;20447;-78
2022/03/22 10:20:26;;;;;;;25.20;15.07;;;;;;;;;;5118655;28;20036;-81
2022/03/22 10:22:56;;;;;;;22.48;13.65;;;;;;;;;;5105397;28;20039;-80
2022/03/22 10:25:22;;;;;;;22.90;13.43;;;;;;;;;;5123305;28;20036;-80
2022/03/22 10:27:48;;;;;;;19.73;12.95;;;;;;;;;;5104056;28;20036;-81
2022/03/22 10:30:17;;;;;;;27.63;12.55;;;;;;;;;;5102204;28;20072;-79
2022/03/22 10:32:44;;;;;;;26.90;13.32;;;;;;;;;;5101171;28;20050;-78
2022/03/22 10:35:11;;;;;;;23.30;12.35;;;;;;;;;;5101113;28;20035;-78
2022/03/22 10:37:38;;;;;;;21.40;12.13;;;;;;;;;;5101375;28;20093;-78
2022/03/22 10:40:04;;;;;;;28.85;11.77;;;;;;;;;;5118473;28;20036;-78
2022/03/22 10:42:32;;;;;;;18.40;11.32;;;;;;;;;;5119605;28;20040;-79
2022/03/22 10:44:58;;;;;;;24.75;12.48;;;;;;;;;;5101583;28;20070;-78
2022/03/22 10:47:25;;;;;;;23.50;12.52;;;;;;;;;;5107725;28;20027;-79
2022/03/22 10:50:07;;;;;;;24.83;12.40;;;;;;;;;;5131947;28;20405;-78
2022/03/22 10:52:33;;;;;;;27.65;12.50;;;;;;;;;;5117645;28;20039;-77
2022/03/22 10:54:59;;;;;;;24.48;12.23;;;;;;;;;;5125295;28;20414;-77
2022/03/22 10:57:37;;;;;;;26.67;12.15;;;;;;;;;;5132136;28;20046;-77
2022/03/22 11:00:04;;;;;;;20.60;12.20;;;;;;;;;;5112117;28;20477;-78
2022/03/22 11:02:33;;;;;;;23.45;12.00;;;;;;;;;;5122535;28;20039;-79
2022/03/22 11:05:00;;;;;;;22.98;11.18;;;;;;;;;;5126857;28;20066;-80
2022/03/22 11:07:26;;;;;;;25.27;11.75;;;;;;;;;;5127897;28;20063;-79
2022/03/22 11:09:52;;;;;;;22.85;10.40;;;;;;;;;;5118388;28;20480;-79
2022/03/22 11:12:19;;;;;;;23.88;11.48;;;;;;;;;;5118306;28;20051;-78
2022/03/22 11:14:45;;;;;;;19.83;11.50;;;;;;;;;;5102292;28;20050;-80
2022/03/22 11:17:12;;;;;;;28.42;10.00;;;;;;;;;;5101603;28;20123;-79
2022/03/22 11:19:38;;;;;;;19.85;9.90;;;;;;;;;;5102092;28;20083;-79
2022/03/22 11:22:05;;;;;;;20.02;9.15;;;;;;;;;;5118158;28;20046;-79
2022/03/22 11:24:31;;;;;;;19.10;8.70;;;;;;;;;;5118060;28;20058;-79
2022/03/22 11:26:57;;;;;;;21.77;8.13;;;;;;;;;;5100553;28;20039;-79
2022/03/22 11:29:25;;;;;;;17.48;8.70;;;;;;;;;;5100926;28;20050;-80
2022/03/22 11:34:35;;;;;;;23.95;10.85;;;;;;;;;;5118434;28;20035;-80
2022/03/22 11:37:02;;;;;;;23.35;11.05;;;;;;;;;;5102295;28;20101;-81
2022/03/22 11:42:20;;;;;;;17.00;10.68;;;;;;;;;;5120569;28;20386;-79
2022/03/22 11:44:57;;;;;;;25.65;11.25;;;;;;;;;;5119907;28;20044;-79
2022/03/22 11:47:23;;;;;;;19.35;10.77;;;;;;;;;;5102496;28;20053;-80
2022/03/22 11:49:56;;;;;;;24.23;11.60;;;;;;;;;;5118381;28;20071;-80
2022/03/22 11:52:25;;;;;;;21.20;11.15;;;;;;;;;;5105631;28;20043;-80
2022/03/22 11:55:00;;;;;;;20.98;10.82;;;;;;;;;;5123076;28;20035;-79
2022/03/22 11:57:27;;;;;;;26.23;10.63;;;;;;;;;;5121792;28;20099;-79
2022/03/22 11:59:53;;;;;;;26.55;11.68;;;;;;;;;;5125443;28;20112;-80
2022/03/22 12:02:20;;;;;;;19.33;10.88;;;;;;;;;;5122116;28;20044;-80
2022/03/22 12:04:53;;;;;;;20.52;9.80;;;;;;;;;;5102546;28;20156;-80
2022/03/22 12:07:29;;;;;;;24.38;10.15;;;;;;;;;;5119084;28;20039;-80
2022/03/22 12:10:15;;;;;;;19.77;9.70;;;;;;;;;;5120352;28;20040;-79
2022/03/22 12:12:52;;;;;;;21.38;9.98;;;;;;;;;;5122646;28;20043;-79
2022/03/22 12:15:19;;;;;;;20.48;9.40;;;;;;;;;;5107710;28;20035;-78
2022/03/22 12:17:45;;;;;;;19.52;9.93;;;;;;;;;;5102317;28;20036;-78
2022/03/22 12:20:12;;;;;;;23.38;10.23;;;;;;;;;;5102339;28;20046;-80
2022/03/22 12:22:39;;;;;;;17.48;10.95;;;;;;;;;;5103688;28;20048;-77
2022/03/22 12:25:06;;;;;;;21.73;10.20;;;;;;;;;;5103602;28;20472;-78
2022/03/22 12:27:32;;;;;;;26.25;11.43;;;;;;;;;;5104594;28;20067;-78
2022/03/22 12:29:58;;;;;;;22.10;10.60;;;;;;;;;;5119479;28;20104;-79
2022/03/22 12:32:27;;;;;;;24.73;10.35;;;;;;;;;;5101488;28;20050;-78
2022/03/22 12:34:53;;;;;;;19.08;11.55;;;;;;;;;;5118222;28;20035;-78
2022/03/22 12:37:19;;;;;;;23.67;10.90;;;;;;;;;;5100235;28;20043;-78
2022/03/22 12:39:45;;;;;;;23.88;10.75;;;;;;;;;;5101983;28;20028;-78
2022/03/22 12:42:12;;;;;;;21.17;11.02;;;;;;;;;;5103459;28;20126;-80
2022/03/22 12:44:38;;;;;;;24.30;10.70;;;;;;;;;;5105949;28;20148;-78
2022/03/22 12:47:05;;;;;;;23.55;10.82;;;;;;;;;;5108045;28;20039;-79
2022/03/22 12:49:32;;;;;;;21.83;11.20;;;;;;;;;;5113564;28;20066;-78
2022/03/22 12:51:59;;;;;;;21.73;11.63;;;;;;;;;;5130661;28;20048;-78
2022/03/22 12:54:30;;;;;;;24.70;11.80;;;;;;;;;;5112839;28;20040;-79
2022/03/22 12:57:00;;;;;;;22.83;11.95;;;;;;;;;;5126117;28;20050;-80
2022/03/22 12:59:26;;;;;;;23.33;11.90;;;;;;;;;;5123722;28;20443;-79
2022/03/22 13:01:56;;;;;;;23.55;12.15;;;;;;;;;;5107156;28;20046;-79
2022/03/22 13:04:22;;;;;;;24.98;11.55;;;;;;;;;;5107232;28;20440;-80
2022/03/22 13:06:50;;;;;;;25.38;11.13;;;;;;;;;;5123862;28;20462;-80
2022/03/22 13:12:01;;;;;;;19.55;11.88;;;;;;;;;;5125008;28;20040;-79
2022/03/22 13:17:11;;;;;;;32.05;12.25;;;;;;;;;;5121613;28;20369;-79
2022/03/22 13:19:38;;;;;;;20.08;11.18;;;;;;;;;;5104227;28;20344;-80
2022/03/22 13:22:04;;;;;;;20.33;10.93;;;;;;;;;;5120464;28;20052;-78
2022/03/22 13:24:35;;;;;;;22.45;11.57;;;;;;;;;;5120315;28;20040;-79
2022/03/22 13:27:06;;;;;;;24.98;12.77;;;;;;;;;;5120212;28;20039;-79
2022/03/22 13:29:35;;;;;;;23.75;12.27;;;;;;;;;;5104067;28;20078;-79
2022/03/22 13:32:01;;;;;;;22.08;12.70;;;;;;;;;;5121176;28;20122;-81
2022/03/22 13:34:28;;;;;;;24.13;12.82;;;;;;;;;;5121253;28;20412;-80
2022/03/22 13:37:03;;;;;;;22.40;12.20;;;;;;;;;;5120396;28;20065;-80
2022/03/22 13:39:29;;;;;;;29.70;13.02;;;;;;;;;;5119507;28;20439;-80
2022/03/22 13:42:05;;;;;;;24.80;12.95;;;;;;;;;;5102839;28;20360;-79
2022/03/22 13:44:31;;;;;;;23.05;13.10;;;;;;;;;;5120597;28;20040;-78
2022/03/22 13:46:59;;;;;;;21.27;13.23;;;;;;;;;;5119431;28;20040;-79
2022/03/22 13:49:53;;;;;;;28.55;13.57;;;;;;;;;;5120141;28;20420;-78
2022/03/22 13:52:29;;;;;;;23.05;13.27;;;;;;;;;;5104102;28;20031;-78
2022/03/22 13:58:56;;;;;;;25.45;14.02;;;;;;;;;;5125105;28;20054;-79
2022/03/22 14:01:33;;;;;;;27.23;14.88;;;;;;;;;;5086642;28;20047;-82
2022/03/22 14:04:25;;;;;;;26.50;15.13;;;;;;;;;;5116865;28;20120;-80
2022/03/22 14:07:22;;;;;;;25.75;14.82;;;;;;;;;;5113942;28;20055;-79
2022/03/22 14:12:57;;;;;;;27.83;14.32;;;;;;;;;;5118953;28;20032;-81
2022/03/22 14:15:45;;;;;;;26.50;14.40;;;;;;;;;;5119524;28;20375;-81
2022/03/22 14:18:18;;;;;;;26.83;14.75;;;;;;;;;;5120062;28;20043;-81
2022/03/22 14:21:18;;;;;;;27.63;14.73;;;;;;;;;;5120803;28;20043;-81
2022/03/22 14:23:48;;;;;;;27.42;15.38;;;;;;;;;;5118694;28;20450;-80
2022/03/22 14:26:14;;;;;;;28.00;15.15;;;;;;;;;;5105937;28;20096;-80
2022/03/22 14:28:40;;;;;;;29.17;15.15;;;;;;;;;;5103765;28;20385;-79
2022/03/22 14:31:06;;;;;;;28.10;14.93;;;;;;;;;;5120571;28;20039;-80
2022/03/22 14:33:32;;;;;;;25.63;15.20;;;;;;;;;;5101531;28;20039;-79
2022/03/22 14:35:58;;;;;;;31.13;15.93;;;;;;;;;;5121750;28;20044;-81
2022/03/22 14:38:28;;;;;;;28.98;15.07;;;;;;;;;;5105586;28;20424;-81
2022/03/22 14:41:01;;;;;;;27.27;15.25;;;;;;;;;;5107477;28;20058;-81
2022/03/22 14:43:27;;;;;;;30.55;15.10;;;;;;;;;;5124018;28;20416;-82
2022/03/22 14:45:53;;;;;;;29.88;15.00;;;;;;;;;;5104862;28;20039;-81
2022/03/22 14:48:19;;;;;;;25.73;15.38;;;;;;;;;;5106911;28;20039;-81
2022/03/22 14:50:46;;;;;;;25.15;14.63;;;;;;;;;;5106091;28;20047;-81
2022/03/22 14:58:48;;;;;;;27.45;14.20;;;;;;;;;;5122255;28;20067;-79
2022/03/22 15:01:15;;;;;;;23.37;14.00;;;;;;;;;;5123012;28;20675;-80
2022/03/22 15:03:42;;;;;;;20.13;13.23;;;;;;;;;;5107178;28;20081;-79
2022/03/22 15:06:09;;;;;;;25.60;14.27;;;;;;;;;;5126604;28;20048;-79
2022/03/22 15:08:36;;;;;;;27.48;14.10;;;;;;;;;;5104587;28;20043;-79
2022/03/22 15:11:02;;;;;;;28.27;14.55;;;;;;;;;;5120420;28;20039;-80
2022/03/22 15:13:28;;;;;;;26.13;14.48;;;;;;;;;;5105215;28;20548;-80
2022/03/22 15:15:54;;;;;;;21.98;14.27;;;;;;;;;;5121011;28;20032;-80